Time;durP1;ratioP1;P1;durP2;ratioP2;P2;SDS_P1;SDS_P2;PMS_P1;PMS_P2;Temp;Humidity;BMP_temperature;BMP_pressure;BME280_temperature;BME280_humidity;BME280_pressure;Samples;Min_cycle;Max_cycle;Signal;HPM_P1;HPM_P2
2022/10/30 00:07:14;;;;;;;4.35;2.13;;;16.10;99.90;;;;;;20814109;28;20041;-39
2022/10/30 00:17:15;;;;;;;11.80;3.45;;;16.10;99.90;;;;;;20811861;28;20064;-39
2022/10/30 00:27:16;;;;;;;9.43;1.92;;;16.00;99.90;;;;;;20807148;28;20045;-39
2022/10/30 00:37:18;;;;;;;7.70;3.00;;;16.10;99.90;;;;;;20808859;28;20187;-39
2022/10/30 00:47:25;;;;;;;4.85;2.45;;;16.00;99.90;;;;;;20813004;28;20085;-39
2022/10/30 00:57:26;;;;;;;4.55;2.42;;;16.00;99.90;;;;;;20814259;28;20071;-39
2022/10/30 01:07:27;;;;;;;4.65;2.15;;;16.00;99.90;;;;;;20813386;28;20098;-39
2022/10/30 01:17:57;;;;;;;6.70;3.47;;;15.90;99.90;;;;;;20809421;28;20041;-39
2022/10/30 01:28:06;;;;;;;6.15;2.50;;;15.80;99.90;;;;;;20812002;28;20829;-39
2022/10/30 01:38:32;;;;;;;3.50;2.65;;;15.70;99.90;;;;;;20805805;28;20077;-39
2022/10/30 01:48:33;;;;;;;5.63;2.60;;;15.60;99.90;;;;;;20806072;28;20056;-39
2022/10/30 01:59:09;;;;;;;6.15;2.50;;;15.60;99.90;;;;;;20806167;28;20059;-39
2022/10/30 02:09:10;;;;;;;4.90;2.97;;;15.60;99.90;;;;;;20759448;28;20084;-39
2022/10/30 02:19:11;;;;;;;6.00;2.53;;;15.50;99.90;;;;;;20805332;28;20109;-39
2022/10/30 02:29:13;;;;;;;4.50;1.80;;;15.40;99.90;;;;;;20818309;28;20064;-39
2022/10/30 02:39:14;;;;;;;3.92;2.13;;;15.40;99.90;;;;;;20818180;28;20052;-39
2022/10/30 02:49:15;;;;;;;3.95;1.85;;;15.40;99.90;;;;;;20820608;28;20049;-39
2022/10/30 02:59:16;;;;;;;6.25;1.67;;;15.30;99.90;;;;;;20819548;28;20044;-39
2022/10/30 03:09:17;;;;;;;3.53;2.20;;;15.30;99.90;;;;;;20818285;28;20041;-39
2022/10/30 03:19:18;;;;;;;3.05;1.55;;;15.20;99.90;;;;;;20816213;28;20095;-39
2022/10/30 03:29:19;;;;;;;8.18;2.45;;;15.00;99.90;;;;;;20811244;28;20079;-39
2022/10/30 07:38:37;;;;;;;4.30;2.55;;;13.90;99.90;;;;;;20763517;23;20335;-39
2022/10/30 07:48:38;;;;;;;9.98;4.00;;;14.10;99.90;;;;;;20767200;28;20503;-39
2022/10/30 07:58:39;;;;;;;5.65;2.10;;;14.50;99.90;;;;;;20776021;28;20112;-39
2022/10/30 08:08:40;;;;;;;6.95;2.72;;;14.80;99.90;;;;;;20724793;28;20132;-39
2022/10/30 08:18:41;;;;;;;5.18;2.92;;;15.00;99.90;;;;;;20766403;28;20064;-39
2022/10/30 08:28:42;;;;;;;5.20;2.58;;;15.30;99.90;;;;;;20758354;28;20078;-39
2022/10/30 08:38:43;;;;;;;6.03;3.00;;;15.70;99.90;;;;;;20752941;28;20083;-39
2022/10/30 08:48:44;;;;;;;5.90;2.60;;;15.80;99.90;;;;;;20747990;28;20167;-40
2022/10/30 08:58:45;;;;;;;6.22;3.05;;;16.00;99.90;;;;;;20745443;28;20072;-40
2022/10/30 09:08:46;;;;;;;5.65;2.65;;;16.40;99.90;;;;;;20756937;28;20073;-39
2022/10/30 09:18:47;;;;;;;10.05;3.83;;;16.60;99.90;;;;;;20739091;28;20128;-39
2022/10/30 09:28:48;;;;;;;6.72;2.53;;;16.80;99.90;;;;;;20755346;28;20061;-39
2022/10/30 09:38:49;;;;;;;6.38;3.72;;;17.10;99.90;;;;;;20760587;28;20686;-40
2022/10/30 09:49:17;;;;;;;5.63;2.72;;;17.40;99.90;;;;;;20740292;28;20140;-39
2022/10/30 09:59:57;;;;;;;5.80;2.83;;;17.60;99.90;;;;;;20760332;28;20222;-40
2022/10/30 10:10:05;;;;;;;10.45;3.25;;;17.80;99.90;;;;;;20752530;28;20806;-40
2022/10/30 10:20:26;;;;;;;8.27;2.72;;;18.10;99.90;;;;;;20759979;28;20556;-40
2022/10/30 10:30:37;;;;;;;5.68;2.33;;;18.30;99.90;;;;;;20768978;28;21151;-40
2022/10/30 10:40:52;;;;;;;11.00;2.92;;;18.60;99.90;;;;;;20766027;28;21250;-40
2022/10/30 10:50:56;;;;;;;3.97;2.22;;;18.90;99.90;;;;;;20793455;28;20390;-40
2022/10/30 11:00:58;;;;;;;4.03;2.30;;;19.60;99.90;;;;;;20792505;28;20045;-40
2022/10/30 11:11:03;;;;;;;3.25;1.83;;;20.10;99.90;;;;;;20795148;28;20130;-39
2022/10/30 11:21:21;;;;;;;8.18;3.10;;;20.80;99.90;;;;;;20775868;28;20081;-39
2022/10/30 11:31:39;;;;;;;7.00;2.33;;;20.80;99.90;;;;;;20776687;28;20141;-40
2022/10/30 11:41:40;;;;;;;4.37;1.73;;;20.70;99.90;;;;;;20764520;28;20950;-40
2022/10/30 11:51:46;;;;;;;6.40;2.80;;;20.90;99.90;;;;;;20771402;28;20056;-40
2022/10/30 12:02:25;;;;;;;4.70;1.95;;;20.80;99.90;;;;;;20765120;28;20100;-40
2022/10/30 12:12:34;;;;;;;5.70;2.85;;;20.40;99.90;;;;;;20786164;28;20092;-40
2022/10/30 12:22:36;;;;;;;17.52;3.58;;;20.30;99.90;;;;;;20761755;28;21923;-40
2022/10/30 12:33:10;;;;;;;3.72;2.20;;;20.30;99.90;;;;;;20759786;28;20133;-40
2022/10/30 12:43:20;;;;;;;4.28;2.00;;;20.10;99.90;;;;;;20766508;28;20504;-40
2022/10/30 12:53:30;;;;;;;3.90;1.52;;;20.10;99.90;;;;;;20778887;28;20079;-40
2022/10/30 13:03:54;;;;;;;3.17;1.38;;;19.90;99.90;;;;;;20734249;28;75424;-40
2022/10/30 13:13:58;;;;;;;3.35;1.20;;;19.90;99.90;;;;;;20659482;28;20183;-39
2022/10/30 13:24:10;;;;;;;4.20;1.70;;;19.80;99.90;;;;;;20681522;28;20066;-39
2022/10/30 13:34:39;;;;;;;3.65;1.67;;;19.70;99.90;;;;;;20686322;28;88559;-39
2022/10/30 13:45:00;;;;;;;3.08;1.40;;;19.80;99.90;;;;;;20775923;28;20858;-39
2022/10/30 13:55:22;;;;;;;2.50;1.05;;;19.70;99.90;;;;;;20734065;28;20568;-39
2022/10/30 14:05:28;;;;;;;4.70;2.00;;;19.50;99.90;;;;;;20752054;28;20117;-39
2022/10/30 14:15:29;;;;;;;5.80;1.67;;;19.40;99.90;;;;;;20763525;28;20861;-39
2022/10/30 14:25:30;;;;;;;5.13;2.10;;;19.90;99.90;;;;;;20747886;28;20934;-39
2022/10/30 14:35:34;;;;;;;8.88;3.30;;;20.20;99.90;;;;;;20773115;28;20598;-40
2022/10/30 14:45:51;;;;;;;5.88;2.63;;;19.90;99.90;;;;;;20778676;28;21004;-39
2022/10/30 14:56:05;;;;;;;7.38;2.80;;;19.40;99.90;;;;;;20760076;28;20132;-39
2022/10/30 15:06:43;;;;;;;4.25;1.75;;;19.10;99.90;;;;;;20768073;28;20519;-39
2022/10/30 15:16:48;;;;;;;7.00;2.55;;;18.90;99.90;;;;;;20768876;28;20884;-39
2022/10/30 15:26:53;;;;;;;5.90;3.28;;;18.70;99.90;;;;;;20781558;28;20183;-39
2022/10/30 15:36:54;;;;;;;5.88;2.20;;;18.50;99.90;;;;;;20769136;28;20627;-39
2022/10/30 15:46:59;;;;;;;5.40;3.38;;;18.40;99.90;;;;;;20772294;28;20601;-39
2022/10/30 15:57:00;;;;;;;27.20;12.95;;;18.40;99.90;;;;;;20788209;28;20054;-39
2022/10/30 16:07:17;;;;;;;5.43;2.25;;;18.00;99.90;;;;;;20770103;28;20137;-39
2022/10/30 16:17:18;;;;;;;9.88;3.28;;;17.90;99.90;;;;;;20763380;28;20463;-39
2022/10/30 16:27:21;;;;;;;5.20;1.60;;;17.70;99.90;;;;;;20762432;28;20491;-39
2022/10/30 16:37:37;;;;;;;11.95;3.42;;;17.40;99.90;;;;;;20750503;28;20216;-39
2022/10/30 16:47:42;;;;;;;2.80;1.38;;;17.20;99.90;;;;;;20748178;28;20970;-39
2022/10/30 16:57:45;;;;;;;7.15;2.15;;;17.00;99.90;;;;;;20772012;28;20098;-39
2022/10/30 17:07:58;;;;;;;15.18;2.13;;;16.80;99.90;;;;;;20770786;28;20136;-39
2022/10/30 17:18:13;;;;;;;3.30;1.33;;;16.80;99.90;;;;;;20761789;28;20670;-39
2022/10/30 17:28:31;;;;;;;4.13;1.33;;;16.70;99.90;;;;;;20689499;28;20516;-39
2022/10/30 17:38:33;;;;;;;6.25;3.15;;;16.70;99.90;;;;;;20709286;28;20856;-39
2022/10/30 17:48:34;;;;;;;4.85;1.90;;;16.60;99.90;;;;;;20712197;28;21185;-39
2022/10/30 17:58:35;;;;;;;2.28;1.10;;;16.50;99.90;;;;;;20735401;28;20148;-39
2022/10/30 18:08:36;;;;;;;5.40;2.00;;;16.40;99.90;;;;;;20730230;28;20123;-39
2022/10/30 18:18:37;;;;;;;3.90;1.90;;;16.40;99.90;;;;;;20732759;28;20041;-39
2022/10/30 18:28:38;;;;;;;6.30;2.42;;;16.30;99.90;;;;;;20714583;28;20709;-39
2022/10/30 18:38:39;;;;;;;9.43;5.68;;;16.20;99.90;;;;;;20710790;28;20148;-39
2022/10/30 18:48:41;;;;;;;6.00;2.97;;;16.00;99.90;;;;;;20720237;28;20524;-39
2022/10/30 18:58:42;;;;;;;3.95;1.85;;;15.90;99.90;;;;;;20717934;28;20069;-39
2022/10/30 19:08:43;;;;;;;4.28;1.60;;;15.60;99.90;;;;;;20732389;28;20132;-40
2022/10/30 19:18:45;;;;;;;2.20;0.90;;;15.50;99.90;;;;;;20741025;28;20054;-39
2022/10/30 19:28:46;;;;;;;2.45;1.02;;;15.40;99.90;;;;;;20720958;28;20136;-39
2022/10/30 19:38:46;;;;;;;6.25;2.35;;;15.50;99.90;;;;;;20732106;28;20150;-39
2022/10/30 19:48:47;;;;;;;6.40;2.72;;;15.30;99.90;;;;;;20724365;28;20052;-39
2022/10/30 19:58:49;;;;;;;4.47;1.30;;;15.30;99.90;;;;;;20728905;28;20073;-39
2022/10/30 20:08:50;;;;;;;1.17;0.40;;;15.20;99.90;;;;;;20732647;28;20113;-39
2022/10/30 20:18:51;;;;;;;1.40;0.50;;;15.00;99.90;;;;;;20725233;28;20045;-39
2022/10/30 20:28:53;;;;;;;2.22;1.15;;;14.90;99.90;;;;;;20734781;28;20123;-39
2022/10/30 20:38:54;;;;;;;1.35;0.65;;;14.80;99.90;;;;;;20749568;28;20041;-39
2022/10/30 20:48:55;;;;;;;1.55;0.50;;;14.70;99.90;;;;;;20767527;28;20040;-39
2022/10/30 20:58:56;;;;;;;2.53;1.27;;;14.60;99.90;;;;;;20740656;28;20065;-39
2022/10/30 21:08:57;;;;;;;2.95;1.30;;;14.50;99.90;;;;;;20736087;28;20050;-39
2022/10/30 21:18:58;;;;;;;3.03;1.17;;;14.40;99.90;;;;;;20738988;28;20141;-39
2022/10/30 21:28:59;;;;;;;2.45;1.10;;;14.20;99.90;;;;;;20730581;28;20088;-39
2022/10/30 21:39:00;;;;;;;1.92;0.80;;;13.90;99.90;;;;;;20740390;28;20143;-39
2022/10/30 21:49:05;;;;;;;2.97;1.63;;;13.80;99.90;;;;;;20726960;28;20194;-39
2022/10/30 21:59:09;;;;;;;5.35;1.42;;;13.50;99.90;;;;;;20739667;28;20555;-39
2022/10/30 22:09:13;;;;;;;4.97;1.65;;;13.50;99.90;;;;;;20763525;28;20042;-39
2022/10/30 22:19:14;;;;;;;2.60;1.20;;;13.30;99.90;;;;;;20751724;28;20560;-39
2022/10/30 22:29:15;;;;;;;3.28;0.95;;;13.30;99.90;;;;;;20771054;28;20040;-39
2022/10/30 22:39:16;;;;;;;2.00;1.30;;;13.30;99.90;;;;;;20751720;28;20053;-39
2022/10/30 22:49:17;;;;;;;2.95;1.73;;;13.20;99.90;;;;;;20750781;28;21818;-39
2022/10/30 22:59:18;;;;;;;6.13;1.77;;;13.20;99.90;;;;;;20751468;28;20041;-39
2022/10/30 23:09:22;;;;;;;5.90;1.90;;;13.20;99.90;;;;;;20741996;28;20511;-39
2022/10/30 23:19:25;;;;;;;6.20;1.40;;;13.00;99.90;;;;;;20757758;28;20072;-39
2022/10/30 23:29:26;;;;;;;4.90;1.70;;;13.00;99.90;;;;;;20752268;28;20316;-39
2022/10/30 23:39:28;;;;;;;4.00;1.88;;;12.90;99.90;;;;;;20754712;28;20135;-39
2022/10/30 23:49:29;;;;;;;2.47;1.45;;;12.90;99.90;;;;;;20753848;28;20091;-39
2022/10/30 23:59:30;;;;;;;3.60;1.58;;;12.90;99.90;;;;;;20744608;28;20045;-39
